sensor_id;sensor_type;location;lat;lon;timestamp;P1;durP1;ratioP1;P2;durP2;ratioP2
15938;SDS011;8068;51.322;9.450;2022-11-20T00:00:09;15.27;;;10.00;;
15938;SDS011;8068;51.322;9.450;2022-11-20T00:02:36;18.70;;;11.77;;
15938;SDS011;8068;51.322;9.450;2022-11-20T00:05:02;15.27;;;11.00;;
15938;SDS011;8068;51.322;9.450;2022-11-20T00:07:28;15.10;;;10.77;;
15938;SDS011;8068;51.322;9.450;2022-11-20T00:09:54;19.60;;;12.50;;
15938;SDS011;8068;51.322;9.450;2022-11-20T00:12:20;17.13;;;11.93;;
15938;SDS011;8068;51.322;9.450;2022-11-20T00:14:46;18.20;;;11.60;;
15938;SDS011;8068;51.322;9.450;2022-11-20T00:17:12;15.33;;;10.40;;
15938;SDS011;8068;51.322;9.450;2022-11-20T00:19:39;14.20;;;10.97;;
15938;SDS011;8068;51.322;9.450;2022-11-20T00:22:05;16.00;;;11.27;;
15938;SDS011;8068;51.322;9.450;2022-11-20T00:24:31;18.03;;;11.47;;
15938;SDS011;8068;51.322;9.450;2022-11-20T00:26:57;18.03;;;12.23;;
15938;SDS011;8068;51.322;9.450;2022-11-20T00:29:23;14.17;;;11.30;;
15938;SDS011;8068;51.322;9.450;2022-11-20T00:31:49;20.10;;;12.67;;
15938;SDS011;8068;51.322;9.450;2022-11-20T00:34:15;23.37;;;11.90;;
15938;SDS011;8068;51.322;9.450;2022-11-20T00:36:41;17.50;;;13.00;;
15938;SDS011;8068;51.322;9.450;2022-11-20T00:39:07;21.50;;;12.53;;
15938;SDS011;8068;51.322;9.450;2022-11-20T00:41:33;17.77;;;12.10;;
15938;SDS011;8068;51.322;9.450;2022-11-20T00:43:59;18.03;;;12.37;;
15938;SDS011;8068;51.322;9.450;2022-11-20T00:46:26;21.20;;;12.90;;
15938;SDS011;8068;51.322;9.450;2022-11-20T00:48:53;22.63;;;13.00;;
15938;SDS011;8068;51.322;9.450;2022-11-20T00:51:20;20.07;;;12.03;;
15938;SDS011;8068;51.322;9.450;2022-11-20T00:53:48;27.13;;;11.80;;
15938;SDS011;8068;51.322;9.450;2022-11-20T00:56:15;19.20;;;11.63;;
15938;SDS011;8068;51.322;9.450;2022-11-20T00:58:43;16.50;;;12.17;;
15938;SDS011;8068;51.322;9.450;2022-11-20T01:01:14;23.00;;;14.17;;
15938;SDS011;8068;51.322;9.450;2022-11-20T01:03:43;20.57;;;13.43;;
15938;SDS011;8068;51.322;9.450;2022-11-20T01:06:18;20.53;;;12.50;;
15938;SDS011;8068;51.322;9.450;2022-11-20T01:08:46;21.07;;;11.03;;
15938;SDS011;8068;51.322;9.450;2022-11-20T01:11:15;14.33;;;9.47;;
15938;SDS011;8068;51.322;9.450;2022-11-20T01:13:48;20.23;;;11.70;;
15938;SDS011;8068;51.322;9.450;2022-11-20T01:16:19;14.27;;;10.30;;
15938;SDS011;8068;51.322;9.450;2022-11-20T01:18:47;15.73;;;10.97;;
15938;SDS011;8068;51.322;9.450;2022-11-20T01:21:25;17.43;;;11.07;;
15938;SDS011;8068;51.322;9.450;2022-11-20T01:23:53;15.80;;;10.30;;
15938;SDS011;8068;51.322;9.450;2022-11-20T01:26:20;16.67;;;10.60;;
15938;SDS011;8068;51.322;9.450;2022-11-20T01:28:48;15.10;;;10.10;;
15938;SDS011;8068;51.322;9.450;2022-11-20T01:31:22;15.30;;;10.23;;
15938;SDS011;8068;51.322;9.450;2022-11-20T01:34:04;14.07;;;10.13;;
15938;SDS011;8068;51.322;9.450;2022-11-20T01:36:35;13.70;;;9.70;;
15938;SDS011;8068;51.322;9.450;2022-11-20T01:39:04;16.00;;;10.20;;
15938;SDS011;8068;51.322;9.450;2022-11-20T01:41:32;10.93;;;9.63;;
15938;SDS011;8068;51.322;9.450;2022-11-20T01:44:19;14.53;;;10.30;;
15938;SDS011;8068;51.322;9.450;2022-11-20T01:46:57;13.87;;;9.80;;
15938;SDS011;8068;51.322;9.450;2022-11-20T01:49:31;17.80;;;9.50;;
15938;SDS011;8068;51.322;9.450;2022-11-20T01:52:05;13.37;;;9.03;;
15938;SDS011;8068;51.322;9.450;2022-11-20T01:54:56;12.83;;;9.30;;
15938;SDS011;8068;51.322;9.450;2022-11-20T01:57:31;13.63;;;9.07;;
15938;SDS011;8068;51.322;9.450;2022-11-20T01:59:59;15.23;;;9.30;;
15938;SDS011;8068;51.322;9.450;2022-11-20T02:02:29;15.30;;;9.97;;
15938;SDS011;8068;51.322;9.450;2022-11-20T02:04:56;16.47;;;10.17;;
15938;SDS011;8068;51.322;9.450;2022-11-20T02:07:26;14.37;;;9.53;;
15938;SDS011;8068;51.322;9.450;2022-11-20T02:09:52;12.70;;;9.13;;
15938;SDS011;8068;51.322;9.450;2022-11-20T02:12:24;12.00;;;9.60;;
15938;SDS011;8068;51.322;9.450;2022-11-20T02:15:08;13.00;;;9.87;;
15938;SDS011;8068;51.322;9.450;2022-11-20T02:17:35;13.13;;;10.03;;
15938;SDS011;8068;51.322;9.450;2022-11-20T02:20:01;13.07;;;10.00;;
15938;SDS011;8068;51.322;9.450;2022-11-20T02:22:28;13.17;;;9.07;;
15938;SDS011;8068;51.322;9.450;2022-11-20T02:24:58;12.83;;;9.20;;
15938;SDS011;8068;51.322;9.450;2022-11-20T02:27:25;12.67;;;9.20;;
15938;SDS011;8068;51.322;9.450;2022-11-20T02:29:53;12.17;;;9.47;;
15938;SDS011;8068;51.322;9.450;2022-11-20T02:32:25;13.20;;;9.13;;
15938;SDS011;8068;51.322;9.450;2022-11-20T02:34:56;10.37;;;8.97;;
15938;SDS011;8068;51.322;9.450;2022-11-20T02:37:22;10.40;;;9.30;;
15938;SDS011;8068;51.322;9.450;2022-11-20T02:39:49;9.67;;;8.13;;
15938;SDS011;8068;51.322;9.450;2022-11-20T02:42:17;15.23;;;10.27;;
15938;SDS011;8068;51.322;9.450;2022-11-20T02:44:43;14.50;;;9.90;;
15938;SDS011;8068;51.322;9.450;2022-11-20T02:47:09;11.33;;;9.47;;
15938;SDS011;8068;51.322;9.450;2022-11-20T02:49:35;17.00;;;10.40;;
15938;SDS011;8068;51.322;9.450;2022-11-20T02:52:01;11.00;;;9.17;;
15938;SDS011;8068;51.322;9.450;2022-11-20T02:54:28;13.80;;;10.33;;
15938;SDS011;8068;51.322;9.450;2022-11-20T02:56:54;12.70;;;9.80;;
15938;SDS011;8068;51.322;9.450;2022-11-20T02:59:20;14.10;;;9.80;;
15938;SDS011;8068;51.322;9.450;2022-11-20T03:01:46;14.17;;;9.60;;
15938;SDS011;8068;51.322;9.450;2022-11-20T03:04:12;14.47;;;9.50;;
15938;SDS011;8068;51.322;9.450;2022-11-20T03:06:38;18.90;;;10.50;;
15938;SDS011;8068;51.322;9.450;2022-11-20T03:09:04;14.13;;;10.27;;
15938;SDS011;8068;51.322;9.450;2022-11-20T03:11:30;17.33;;;11.13;;
15938;SDS011;8068;51.322;9.450;2022-11-20T03:13:56;17.63;;;11.30;;
15938;SDS011;8068;51.322;9.450;2022-11-20T03:16:23;24.87;;;10.70;;
15938;SDS011;8068;51.322;9.450;2022-11-20T03:18:49;16.50;;;11.40;;
15938;SDS011;8068;51.322;9.450;2022-11-20T03:21:18;15.53;;;10.63;;
15938;SDS011;8068;51.322;9.450;2022-11-20T03:23:44;17.23;;;11.73;;
15938;SDS011;8068;51.322;9.450;2022-11-20T03:26:14;18.23;;;10.90;;
15938;SDS011;8068;51.322;9.450;2022-11-20T03:28:45;16.53;;;11.20;;
15938;SDS011;8068;51.322;9.450;2022-11-20T03:31:13;15.47;;;10.27;;
15938;SDS011;8068;51.322;9.450;2022-11-20T03:33:40;14.40;;;10.57;;
15938;SDS011;8068;51.322;9.450;2022-11-20T03:36:08;11.77;;;9.83;;
15938;SDS011;8068;51.322;9.450;2022-11-20T03:38:36;12.60;;;10.07;;
15938;SDS011;8068;51.322;9.450;2022-11-20T03:41:24;16.03;;;10.67;;
15938;SDS011;8068;51.322;9.450;2022-11-20T03:43:54;16.17;;;10.57;;
15938;SDS011;8068;51.322;9.450;2022-11-20T03:46:21;17.60;;;10.30;;
15938;SDS011;8068;51.322;9.450;2022-11-20T03:48:47;16.40;;;10.77;;
15938;SDS011;8068;51.322;9.450;2022-11-20T03:51:27;16.03;;;11.03;;
15938;SDS011;8068;51.322;9.450;2022-11-20T03:53:58;16.20;;;10.67;;
15938;SDS011;8068;51.322;9.450;2022-11-20T03:56:27;16.23;;;10.47;;
15938;SDS011;8068;51.322;9.450;2022-11-20T03:58:55;17.47;;;10.40;;
15938;SDS011;8068;51.322;9.450;2022-11-20T04:01:22;13.73;;;10.20;;
15938;SDS011;8068;51.322;9.450;2022-11-20T04:03:51;14.43;;;10.10;;
15938;SDS011;8068;51.322;9.450;2022-11-20T04:06:19;15.17;;;9.97;;
15938;SDS011;8068;51.322;9.450;2022-11-20T04:08:46;10.40;;;9.07;;
15938;SDS011;8068;51.322;9.450;2022-11-20T04:11:20;14.20;;;9.90;;
15938;SDS011;8068;51.322;9.450;2022-11-20T04:13:50;11.40;;;9.13;;
15938;SDS011;8068;51.322;9.450;2022-11-20T04:16:17;13.77;;;9.90;;
15938;SDS011;8068;51.322;9.450;2022-11-20T04:18:44;10.23;;;9.13;;
15938;SDS011;8068;51.322;9.450;2022-11-20T04:21:11;12.00;;;9.90;;
15938;SDS011;8068;51.322;9.450;2022-11-20T04:23:37;16.67;;;9.53;;
15938;SDS011;8068;51.322;9.450;2022-11-20T04:26:06;10.73;;;9.20;;
15938;SDS011;8068;51.322;9.450;2022-11-20T04:28:34;15.60;;;10.30;;
15938;SDS011;8068;51.322;9.450;2022-11-20T04:31:01;16.20;;;9.30;;
15938;SDS011;8068;51.322;9.450;2022-11-20T04:33:28;16.10;;;9.63;;
15938;SDS011;8068;51.322;9.450;2022-11-20T04:36:06;12.13;;;9.00;;
15938;SDS011;8068;51.322;9.450;2022-11-20T04:38:40;15.27;;;9.97;;
15938;SDS011;8068;51.322;9.450;2022-11-20T04:41:07;15.43;;;10.00;;
15938;SDS011;8068;51.322;9.450;2022-11-20T04:43:35;16.20;;;9.97;;
15938;SDS011;8068;51.322;9.450;2022-11-20T04:46:01;15.00;;;10.43;;
15938;SDS011;8068;51.322;9.450;2022-11-20T04:48:28;12.20;;;9.30;;
15938;SDS011;8068;51.322;9.450;2022-11-20T04:50:55;12.13;;;9.70;;
15938;SDS011;8068;51.322;9.450;2022-11-20T04:53:21;12.30;;;9.73;;
15938;SDS011;8068;51.322;9.450;2022-11-20T04:55:47;10.90;;;9.20;;
15938;SDS011;8068;51.322;9.450;2022-11-20T04:58:13;11.40;;;9.47;;
15938;SDS011;8068;51.322;9.450;2022-11-20T05:00:39;11.03;;;9.00;;
15938;SDS011;8068;51.322;9.450;2022-11-20T05:03:05;13.47;;;10.30;;
15938;SDS011;8068;51.322;9.450;2022-11-20T05:05:33;10.47;;;9.20;;
15938;SDS011;8068;51.322;9.450;2022-11-20T05:08:00;11.53;;;9.30;;
15938;SDS011;8068;51.322;9.450;2022-11-20T05:10:26;12.60;;;10.03;;
15938;SDS011;8068;51.322;9.450;2022-11-20T05:12:52;13.43;;;9.47;;
15938;SDS011;8068;51.322;9.450;2022-11-20T05:15:19;12.13;;;9.47;;
15938;SDS011;8068;51.322;9.450;2022-11-20T05:17:48;12.63;;;9.80;;
15938;SDS011;8068;51.322;9.450;2022-11-20T05:20:15;12.20;;;9.80;;
15938;SDS011;8068;51.322;9.450;2022-11-20T05:22:41;13.60;;;10.67;;
15938;SDS011;8068;51.322;9.450;2022-11-20T05:25:08;13.23;;;9.20;;
15938;SDS011;8068;51.322;9.450;2022-11-20T05:27:34;13.40;;;9.93;;
15938;SDS011;8068;51.322;9.450;2022-11-20T05:30:00;14.03;;;10.10;;
15938;SDS011;8068;51.322;9.450;2022-11-20T05:32:26;12.90;;;10.13;;
15938;SDS011;8068;51.322;9.450;2022-11-20T05:34:52;15.20;;;10.27;;
15938;SDS011;8068;51.322;9.450;2022-11-20T05:37:18;17.07;;;10.30;;
15938;SDS011;8068;51.322;9.450;2022-11-20T05:39:44;11.30;;;10.10;;
15938;SDS011;8068;51.322;9.450;2022-11-20T05:42:10;13.50;;;10.90;;
15938;SDS011;8068;51.322;9.450;2022-11-20T05:44:55;16.97;;;10.27;;
15938;SDS011;8068;51.322;9.450;2022-11-20T05:47:22;16.53;;;10.27;;
15938;SDS011;8068;51.322;9.450;2022-11-20T05:49:48;17.37;;;10.17;;
15938;SDS011;8068;51.322;9.450;2022-11-20T05:52:14;12.03;;;9.90;;
15938;SDS011;8068;51.322;9.450;2022-11-20T05:54:40;12.50;;;9.80;;
15938;SDS011;8068;51.322;9.450;2022-11-20T05:57:06;12.37;;;9.80;;
15938;SDS011;8068;51.322;9.450;2022-11-20T05:59:32;16.67;;;10.63;;
15938;SDS011;8068;51.322;9.450;2022-11-20T06:01:58;12.00;;;9.73;;
15938;SDS011;8068;51.322;9.450;2022-11-20T06:04:24;12.03;;;10.00;;
15938;SDS011;8068;51.322;9.450;2022-11-20T06:06:50;17.60;;;10.00;;
15938;SDS011;8068;51.322;9.450;2022-11-20T06:09:16;15.10;;;10.70;;
15938;SDS011;8068;51.322;9.450;2022-11-20T06:11:42;74.20;;;35.27;;
15938;SDS011;8068;51.322;9.450;2022-11-20T06:14:08;36.17;;;19.03;;
15938;SDS011;8068;51.322;9.450;2022-11-20T06:16:34;27.30;;;18.03;;
15938;SDS011;8068;51.322;9.450;2022-11-20T06:19:00;17.97;;;11.80;;
15938;SDS011;8068;51.322;9.450;2022-11-20T06:21:26;17.20;;;11.30;;
15938;SDS011;8068;51.322;9.450;2022-11-20T06:23:53;19.30;;;12.40;;
15938;SDS011;8068;51.322;9.450;2022-11-20T06:26:23;16.83;;;11.67;;
15938;SDS011;8068;51.322;9.450;2022-11-20T06:28:52;18.50;;;11.37;;
15938;SDS011;8068;51.322;9.450;2022-11-20T06:31:19;21.77;;;11.17;;
15938;SDS011;8068;51.322;9.450;2022-11-20T06:33:46;19.93;;;11.90;;
15938;SDS011;8068;51.322;9.450;2022-11-20T06:36:13;21.20;;;12.40;;
15938;SDS011;8068;51.322;9.450;2022-11-20T06:38:40;17.50;;;11.37;;
15938;SDS011;8068;51.322;9.450;2022-11-20T06:41:07;18.10;;;11.20;;
15938;SDS011;8068;51.322;9.450;2022-11-20T06:43:36;16.73;;;11.13;;
15938;SDS011;8068;51.322;9.450;2022-11-20T06:46:02;17.87;;;10.60;;
15938;SDS011;8068;51.322;9.450;2022-11-20T06:48:28;15.70;;;10.53;;
15938;SDS011;8068;51.322;9.450;2022-11-20T06:50:55;16.63;;;11.63;;
15938;SDS011;8068;51.322;9.450;2022-11-20T06:53:22;19.57;;;11.90;;
15938;SDS011;8068;51.322;9.450;2022-11-20T06:55:48;23.13;;;12.60;;
15938;SDS011;8068;51.322;9.450;2022-11-20T06:58:17;16.20;;;11.00;;
15938;SDS011;8068;51.322;9.450;2022-11-20T07:00:43;20.30;;;11.67;;
15938;SDS011;8068;51.322;9.450;2022-11-20T07:03:10;22.73;;;13.07;;
15938;SDS011;8068;51.322;9.450;2022-11-20T07:05:37;21.43;;;12.50;;
15938;SDS011;8068;51.322;9.450;2022-11-20T07:08:04;22.23;;;12.60;;
15938;SDS011;8068;51.322;9.450;2022-11-20T07:10:30;20.83;;;12.37;;
15938;SDS011;8068;51.322;9.450;2022-11-20T07:12:57;21.60;;;13.13;;
15938;SDS011;8068;51.322;9.450;2022-11-20T07:15:24;21.80;;;13.33;;
15938;SDS011;8068;51.322;9.450;2022-11-20T07:17:51;22.10;;;12.90;;
15938;SDS011;8068;51.322;9.450;2022-11-20T07:20:17;27.40;;;14.70;;
15938;SDS011;8068;51.322;9.450;2022-11-20T07:22:43;20.33;;;12.80;;
15938;SDS011;8068;51.322;9.450;2022-11-20T07:25:09;20.17;;;12.27;;
15938;SDS011;8068;51.322;9.450;2022-11-20T07:27:36;21.33;;;11.80;;
15938;SDS011;8068;51.322;9.450;2022-11-20T07:30:02;26.97;;;13.80;;
15938;SDS011;8068;51.322;9.450;2022-11-20T07:32:29;20.20;;;12.50;;
15938;SDS011;8068;51.322;9.450;2022-11-20T07:34:56;24.40;;;12.80;;
15938;SDS011;8068;51.322;9.450;2022-11-20T07:37:22;21.20;;;12.10;;
15938;SDS011;8068;51.322;9.450;2022-11-20T07:39:48;24.63;;;12.20;;
15938;SDS011;8068;51.322;9.450;2022-11-20T07:42:14;20.70;;;12.90;;
15938;SDS011;8068;51.322;9.450;2022-11-20T07:44:40;30.80;;;18.03;;
15938;SDS011;8068;51.322;9.450;2022-11-20T07:47:06;35.53;;;20.40;;
15938;SDS011;8068;51.322;9.450;2022-11-20T07:49:32;32.57;;;18.90;;
15938;SDS011;8068;51.322;9.450;2022-11-20T07:51:58;23.47;;;14.93;;
15938;SDS011;8068;51.322;9.450;2022-11-20T07:54:30;24.53;;;12.70;;
15938;SDS011;8068;51.322;9.450;2022-11-20T07:56:56;21.90;;;12.83;;
15938;SDS011;8068;51.322;9.450;2022-11-20T07:59:22;22.10;;;13.00;;
15938;SDS011;8068;51.322;9.450;2022-11-20T08:01:49;22.60;;;12.17;;
15938;SDS011;8068;51.322;9.450;2022-11-20T08:04:15;23.13;;;13.00;;
15938;SDS011;8068;51.322;9.450;2022-11-20T08:06:41;22.70;;;13.80;;
15938;SDS011;8068;51.322;9.450;2022-11-20T08:09:08;23.40;;;14.00;;
15938;SDS011;8068;51.322;9.450;2022-11-20T08:11:34;16.40;;;11.30;;
15938;SDS011;8068;51.322;9.450;2022-11-20T08:14:18;18.60;;;11.60;;
15938;SDS011;8068;51.322;9.450;2022-11-20T08:16:45;21.53;;;13.13;;
15938;SDS011;8068;51.322;9.450;2022-11-20T08:19:13;23.50;;;12.83;;
15938;SDS011;8068;51.322;9.450;2022-11-20T08:21:40;21.83;;;13.20;;
15938;SDS011;8068;51.322;9.450;2022-11-20T08:24:07;21.60;;;12.50;;
15938;SDS011;8068;51.322;9.450;2022-11-20T08:26:34;16.77;;;10.87;;
15938;SDS011;8068;51.322;9.450;2022-11-20T08:29:01;19.73;;;11.30;;
15938;SDS011;8068;51.322;9.450;2022-11-20T08:31:27;18.70;;;11.60;;
15938;SDS011;8068;51.322;9.450;2022-11-20T08:33:53;17.73;;;11.10;;
15938;SDS011;8068;51.322;9.450;2022-11-20T08:36:20;19.23;;;12.33;;
15938;SDS011;8068;51.322;9.450;2022-11-20T08:38:50;17.87;;;11.23;;
15938;SDS011;8068;51.322;9.450;2022-11-20T08:41:17;21.60;;;11.80;;
15938;SDS011;8068;51.322;9.450;2022-11-20T08:46:22;20.23;;;14.00;;
15938;SDS011;8068;51.322;9.450;2022-11-20T08:48:49;18.80;;;12.27;;
15938;SDS011;8068;51.322;9.450;2022-11-20T08:51:16;20.33;;;12.30;;
15938;SDS011;8068;51.322;9.450;2022-11-20T08:53:42;20.37;;;12.10;;
15938;SDS011;8068;51.322;9.450;2022-11-20T08:56:08;25.17;;;12.68;;
15938;SDS011;8068;51.322;9.450;2022-11-20T08:58:35;19.30;;;11.83;;
15938;SDS011;8068;51.322;9.450;2022-11-20T09:01:22;19.50;;;12.30;;
15938;SDS011;8068;51.322;9.450;2022-11-20T09:03:49;17.40;;;12.00;;
15938;SDS011;8068;51.322;9.450;2022-11-20T09:06:15;20.53;;;12.40;;
15938;SDS011;8068;51.322;9.450;2022-11-20T09:08:42;21.97;;;11.93;;
15938;SDS011;8068;51.322;9.450;2022-11-20T09:11:08;21.87;;;13.07;;
15938;SDS011;8068;51.322;9.450;2022-11-20T09:13:35;21.40;;;13.27;;
15938;SDS011;8068;51.322;9.450;2022-11-20T09:16:02;18.37;;;12.50;;
15938;SDS011;8068;51.322;9.450;2022-11-20T09:18:33;19.97;;;12.03;;
15938;SDS011;8068;51.322;9.450;2022-11-20T09:21:02;23.47;;;12.80;;
15938;SDS011;8068;51.322;9.450;2022-11-20T09:23:31;23.90;;;14.07;;
15938;SDS011;8068;51.322;9.450;2022-11-20T09:26:01;23.93;;;14.00;;
15938;SDS011;8068;51.322;9.450;2022-11-20T09:28:29;41.23;;;14.27;;
15938;SDS011;8068;51.322;9.450;2022-11-20T09:30:55;20.07;;;13.53;;
15938;SDS011;8068;51.322;9.450;2022-11-20T09:33:21;23.43;;;12.80;;
15938;SDS011;8068;51.322;9.450;2022-11-20T09:35:47;24.77;;;14.00;;
15938;SDS011;8068;51.322;9.450;2022-11-20T09:38:13;28.83;;;12.80;;
15938;SDS011;8068;51.322;9.450;2022-11-20T09:40:43;25.70;;;13.20;;
15938;SDS011;8068;51.322;9.450;2022-11-20T09:43:20;32.93;;;13.80;;
15938;SDS011;8068;51.322;9.450;2022-11-20T09:45:53;18.87;;;13.10;;
15938;SDS011;8068;51.322;9.450;2022-11-20T09:53:55;25.57;;;14.70;;
15938;SDS011;8068;51.322;9.450;2022-11-20T09:56:42;25.07;;;15.67;;
15938;SDS011;8068;51.322;9.450;2022-11-20T09:59:31;73.93;;;37.93;;
15938;SDS011;8068;51.322;9.450;2022-11-20T10:02:00;26.43;;;15.30;;
15938;SDS011;8068;51.322;9.450;2022-11-20T10:04:29;26.17;;;15.93;;
15938;SDS011;8068;51.322;9.450;2022-11-20T10:09:58;26.80;;;15.17;;
15938;SDS011;8068;51.322;9.450;2022-11-20T10:20:54;23.33;;;12.93;;
15938;SDS011;8068;51.322;9.450;2022-11-20T10:29:07;20.17;;;13.30;;
15938;SDS011;8068;51.322;9.450;2022-11-20T10:31:38;20.13;;;13.07;;
15938;SDS011;8068;51.322;9.450;2022-11-20T10:34:08;22.90;;;13.00;;
15938;SDS011;8068;51.322;9.450;2022-11-20T10:40:05;20.63;;;13.20;;
15938;SDS011;8068;51.322;9.450;2022-11-20T10:42:44;20.40;;;13.60;;
15938;SDS011;8068;51.322;9.450;2022-11-20T10:45:18;21.83;;;13.60;;
15938;SDS011;8068;51.322;9.450;2022-11-20T10:48:01;24.53;;;13.90;;
15938;SDS011;8068;51.322;9.450;2022-11-20T10:50:35;25.90;;;14.60;;
15938;SDS011;8068;51.322;9.450;2022-11-20T10:53:08;25.33;;;14.80;;
15938;SDS011;8068;51.322;9.450;2022-11-20T10:55:46;22.30;;;14.90;;
15938;SDS011;8068;51.322;9.450;2022-11-20T10:58:19;23.53;;;15.20;;
15938;SDS011;8068;51.322;9.450;2022-11-20T11:01:03;27.00;;;15.30;;
15938;SDS011;8068;51.322;9.450;2022-11-20T11:03:39;24.83;;;14.40;;
15938;SDS011;8068;51.322;9.450;2022-11-20T11:06:17;24.20;;;14.80;;
15938;SDS011;8068;51.322;9.450;2022-11-20T11:09:10;25.27;;;15.40;;
15938;SDS011;8068;51.322;9.450;2022-11-20T11:11:39;27.27;;;15.43;;
15938;SDS011;8068;51.322;9.450;2022-11-20T11:14:09;22.77;;;14.40;;
15938;SDS011;8068;51.322;9.450;2022-11-20T11:16:40;27.13;;;15.33;;
15938;SDS011;8068;51.322;9.450;2022-11-20T11:19:14;22.80;;;14.63;;
15938;SDS011;8068;51.322;9.450;2022-11-20T11:21:48;23.80;;;14.13;;
15938;SDS011;8068;51.322;9.450;2022-11-20T11:24:34;22.17;;;13.53;;
15938;SDS011;8068;51.322;9.450;2022-11-20T11:27:12;21.73;;;13.80;;
15938;SDS011;8068;51.322;9.450;2022-11-20T11:29:43;23.30;;;14.70;;
15938;SDS011;8068;51.322;9.450;2022-11-20T11:32:28;24.17;;;15.30;;
15938;SDS011;8068;51.322;9.450;2022-11-20T11:35:01;25.03;;;13.87;;
15938;SDS011;8068;51.322;9.450;2022-11-20T11:37:37;21.33;;;12.97;;
15938;SDS011;8068;51.322;9.450;2022-11-20T11:40:04;20.60;;;14.17;;
15938;SDS011;8068;51.322;9.450;2022-11-20T11:42:55;22.70;;;13.37;;
15938;SDS011;8068;51.322;9.450;2022-11-20T11:45:23;20.13;;;12.83;;
15938;SDS011;8068;51.322;9.450;2022-11-20T11:47:49;21.50;;;13.40;;
15938;SDS011;8068;51.322;9.450;2022-11-20T11:50:18;26.07;;;14.70;;
15938;SDS011;8068;51.322;9.450;2022-11-20T11:55:27;25.20;;;14.70;;
15938;SDS011;8068;51.322;9.450;2022-11-20T11:58:14;25.90;;;15.50;;
15938;SDS011;8068;51.322;9.450;2022-11-20T12:00:44;29.03;;;15.93;;
15938;SDS011;8068;51.322;9.450;2022-11-20T12:03:19;30.50;;;18.10;;
15938;SDS011;8068;51.322;9.450;2022-11-20T12:05:49;26.70;;;15.67;;
15938;SDS011;8068;51.322;9.450;2022-11-20T12:11:29;25.47;;;14.20;;
15938;SDS011;8068;51.322;9.450;2022-11-20T12:14:04;25.97;;;16.03;;
15938;SDS011;8068;51.322;9.450;2022-11-20T12:16:36;28.40;;;16.37;;
15938;SDS011;8068;51.322;9.450;2022-11-20T12:19:03;29.50;;;16.23;;
15938;SDS011;8068;51.322;9.450;2022-11-20T12:21:39;30.23;;;15.80;;
15938;SDS011;8068;51.322;9.450;2022-11-20T12:24:42;27.83;;;16.30;;
15938;SDS011;8068;51.322;9.450;2022-11-20T12:30:19;25.90;;;16.50;;
15938;SDS011;8068;51.322;9.450;2022-11-20T12:41:00;25.27;;;15.90;;
15938;SDS011;8068;51.322;9.450;2022-11-20T12:43:30;36.93;;;17.57;;
15938;SDS011;8068;51.322;9.450;2022-11-20T12:49:08;26.03;;;14.60;;
15938;SDS011;8068;51.322;9.450;2022-11-20T13:07:24;25.30;;;16.50;;
15938;SDS011;8068;51.322;9.450;2022-11-20T13:09:52;37.13;;;16.90;;
15938;SDS011;8068;51.322;9.450;2022-11-20T13:12:30;28.37;;;14.67;;
15938;SDS011;8068;51.322;9.450;2022-11-20T13:17:53;25.17;;;16.07;;
15938;SDS011;8068;51.322;9.450;2022-11-20T13:20:22;32.07;;;16.70;;
15938;SDS011;8068;51.322;9.450;2022-11-20T13:22:50;34.43;;;18.77;;
15938;SDS011;8068;51.322;9.450;2022-11-20T13:25:22;25.67;;;15.87;;
15938;SDS011;8068;51.322;9.450;2022-11-20T13:27:48;29.90;;;16.37;;
15938;SDS011;8068;51.322;9.450;2022-11-20T13:30:17;26.60;;;16.60;;
15938;SDS011;8068;51.322;9.450;2022-11-20T13:32:48;25.27;;;15.10;;
15938;SDS011;8068;51.322;9.450;2022-11-20T13:36:04;25.87;;;14.27;;
15938;SDS011;8068;51.322;9.450;2022-11-20T13:38:19;33.03;;;16.10;;
15938;SDS011;8068;51.322;9.450;2022-11-20T13:40:51;29.13;;;16.20;;
15938;SDS011;8068;51.322;9.450;2022-11-20T13:43:35;29.10;;;16.13;;
15938;SDS011;8068;51.322;9.450;2022-11-20T13:46:05;27.37;;;16.03;;
15938;SDS011;8068;51.322;9.450;2022-11-20T13:48:34;30.53;;;18.00;;
15938;SDS011;8068;51.322;9.450;2022-11-20T14:02:08;27.70;;;16.50;;
15938;SDS011;8068;51.322;9.450;2022-11-20T14:04:38;30.40;;;18.50;;
15938;SDS011;8068;51.322;9.450;2022-11-20T14:07:08;30.07;;;17.37;;
15938;SDS011;8068;51.322;9.450;2022-11-20T14:09:36;24.43;;;15.47;;
15938;SDS011;8068;51.322;9.450;2022-11-20T14:12:03;20.00;;;13.63;;
15938;SDS011;8068;51.322;9.450;2022-11-20T14:14:30;26.43;;;15.00;;
15938;SDS011;8068;51.322;9.450;2022-11-20T14:17:15;22.20;;;14.80;;
15938;SDS011;8068;51.322;9.450;2022-11-20T14:19:44;28.00;;;14.70;;
15938;SDS011;8068;51.322;9.450;2022-11-20T14:24:45;30.50;;;16.03;;
15938;SDS011;8068;51.322;9.450;2022-11-20T14:27:16;32.67;;;16.20;;
15938;SDS011;8068;51.322;9.450;2022-11-20T14:29:46;23.87;;;16.00;;
15938;SDS011;8068;51.322;9.450;2022-11-20T14:32:16;29.73;;;16.13;;
15938;SDS011;8068;51.322;9.450;2022-11-20T14:34:44;26.67;;;16.00;;
15938;SDS011;8068;51.322;9.450;2022-11-20T14:37:12;27.40;;;15.67;;
15938;SDS011;8068;51.322;9.450;2022-11-20T14:39:47;26.47;;;15.50;;
15938;SDS011;8068;51.322;9.450;2022-11-20T14:42:17;24.50;;;15.23;;
15938;SDS011;8068;51.322;9.450;2022-11-20T14:44:45;21.73;;;14.20;;
15938;SDS011;8068;51.322;9.450;2022-11-20T14:47:15;19.10;;;12.77;;
15938;SDS011;8068;51.322;9.450;2022-11-20T14:49:44;19.97;;;12.50;;
15938;SDS011;8068;51.322;9.450;2022-11-20T14:54:46;17.40;;;12.37;;
15938;SDS011;8068;51.322;9.450;2022-11-20T14:57:54;16.67;;;12.17;;
15938;SDS011;8068;51.322;9.450;2022-11-20T15:02:42;17.83;;;11.33;;
15938;SDS011;8068;51.322;9.450;2022-11-20T15:05:09;21.90;;;12.73;;
15938;SDS011;8068;51.322;9.450;2022-11-20T15:07:39;23.00;;;11.70;;
15938;SDS011;8068;51.322;9.450;2022-11-20T15:12:49;23.00;;;13.10;;
15938;SDS011;8068;51.322;9.450;2022-11-20T15:15:18;19.73;;;11.57;;
15938;SDS011;8068;51.322;9.450;2022-11-20T15:18:10;20.60;;;13.03;;
15938;SDS011;8068;51.322;9.450;2022-11-20T15:20:38;20.00;;;12.37;;
15938;SDS011;8068;51.322;9.450;2022-11-20T15:23:14;20.97;;;12.97;;
15938;SDS011;8068;51.322;9.450;2022-11-20T15:25:41;22.90;;;13.00;;
15938;SDS011;8068;51.322;9.450;2022-11-20T15:30:45;24.10;;;14.87;;
15938;SDS011;8068;51.322;9.450;2022-11-20T15:33:12;24.33;;;13.40;;
15938;SDS011;8068;51.322;9.450;2022-11-20T15:35:38;22.00;;;13.60;;
15938;SDS011;8068;51.322;9.450;2022-11-20T15:38:04;22.47;;;14.10;;
15938;SDS011;8068;51.322;9.450;2022-11-20T15:40:31;25.00;;;13.57;;
15938;SDS011;8068;51.322;9.450;2022-11-20T15:42:57;22.83;;;14.47;;
15938;SDS011;8068;51.322;9.450;2022-11-20T15:45:43;25.80;;;14.30;;
15938;SDS011;8068;51.322;9.450;2022-11-20T15:48:18;23.40;;;13.60;;
15938;SDS011;8068;51.322;9.450;2022-11-20T15:51:02;26.13;;;14.03;;
15938;SDS011;8068;51.322;9.450;2022-11-20T15:53:32;23.27;;;13.90;;
15938;SDS011;8068;51.322;9.450;2022-11-20T15:55:58;26.63;;;13.60;;
15938;SDS011;8068;51.322;9.450;2022-11-20T15:58:24;22.23;;;14.03;;
15938;SDS011;8068;51.322;9.450;2022-11-20T16:00:50;24.10;;;13.40;;
15938;SDS011;8068;51.322;9.450;2022-11-20T16:03:17;24.70;;;12.63;;
15938;SDS011;8068;51.322;9.450;2022-11-20T16:05:44;22.17;;;12.97;;
15938;SDS011;8068;51.322;9.450;2022-11-20T16:08:10;24.30;;;13.53;;
15938;SDS011;8068;51.322;9.450;2022-11-20T16:10:37;21.57;;;13.50;;
15938;SDS011;8068;51.322;9.450;2022-11-20T16:13:04;25.17;;;14.03;;
15938;SDS011;8068;51.322;9.450;2022-11-20T16:15:50;24.50;;;13.20;;
15938;SDS011;8068;51.322;9.450;2022-11-20T16:18:19;24.30;;;14.73;;
15938;SDS011;8068;51.322;9.450;2022-11-20T16:20:47;24.37;;;13.53;;